createdAt,value
2023-04-23T00:00:03.185Z,79.00
2023-04-23T00:01:02.824Z,80.00
2023-04-23T00:02:03.362Z,80.00
2023-04-23T00:03:03.006Z,79.00
2023-04-23T00:04:03.499Z,79.00
2023-04-23T00:05:03.004Z,79.00
2023-04-23T00:06:03.142Z,78.00
2023-04-23T00:07:02.743Z,79.00
2023-04-23T00:08:02.188Z,79.00
2023-04-23T00:09:02.705Z,79.00
2023-04-23T00:10:02.310Z,80.00
2023-04-23T00:11:02.159Z,80.00
2023-04-23T00:12:02.736Z,80.00
2023-04-23T00:13:03.311Z,80.00
2023-04-23T00:14:02.939Z,81.00
2023-04-23T00:15:03.096Z,80.00
2023-04-23T00:16:03.239Z,80.00
2023-04-23T00:17:02.098Z,80.00
2023-04-23T00:18:02.438Z,80.00
2023-04-23T00:19:02.374Z,79.00
2023-04-23T00:20:02.083Z,79.00
2023-04-23T00:21:02.074Z,79.00
2023-04-23T00:22:02.645Z,80.00
2023-04-23T00:23:03.229Z,80.00
2023-04-23T00:24:02.861Z,80.00
2023-04-23T00:25:02.745Z,80.00
2023-04-23T00:26:03.213Z,80.00
2023-04-23T00:27:02.902Z,80.00
2023-04-23T00:28:02.833Z,80.00
2023-04-23T00:29:03.158Z,80.00
2023-04-23T00:30:03.091Z,80.00
2023-04-23T00:31:03.304Z,79.00
2023-04-23T00:32:02.358Z,79.00
2023-04-23T00:33:02.211Z,78.00
2023-04-23T00:34:02.158Z,78.00
2023-04-23T00:35:02.699Z,77.00
2023-04-23T00:36:02.367Z,77.00
2023-04-23T00:37:02.262Z,76.00
2023-04-23T00:38:02.171Z,76.00
2023-04-23T00:39:02.795Z,76.00
2023-04-23T00:40:02.467Z,76.00
2023-04-23T00:41:02.235Z,76.00
2023-04-23T00:42:02.979Z,77.00
2023-04-23T00:43:03.228Z,77.00
2023-04-23T00:44:03.147Z,78.00
2023-04-23T00:45:02.937Z,78.00
2023-04-23T00:46:02.837Z,77.00
2023-04-23T00:47:02.394Z,77.00
2023-04-23T00:48:02.960Z,78.00
2023-04-23T00:49:02.518Z,78.00
2023-04-23T00:50:02.456Z,78.00
2023-04-23T00:51:03.011Z,77.00
2023-04-23T00:52:03.129Z,77.00
2023-04-23T00:53:02.759Z,76.00
2023-04-23T00:54:03.028Z,76.00
2023-04-23T00:55:02.732Z,77.00
2023-04-23T00:56:02.848Z,77.00
2023-04-23T00:57:02.719Z,76.00
2023-04-23T00:58:03.036Z,76.00
2023-04-23T00:59:02.982Z,76.00
2023-04-23T01:00:02.993Z,77.00
2023-04-23T01:01:03.039Z,77.00
2023-04-23T01:02:02.030Z,78.00
2023-04-23T01:03:02.197Z,78.00
2023-04-23T01:04:02.283Z,78.00
2023-04-23T01:05:02.119Z,78.00
2023-04-23T01:06:02.068Z,78.00
2023-04-23T01:07:02.679Z,77.00
2023-04-23T01:08:02.583Z,77.00
2023-04-23T01:09:02.586Z,77.00
2023-04-23T01:10:02.502Z,77.00
2023-04-23T01:11:03.085Z,77.00
2023-04-23T01:12:02.891Z,78.00
2023-04-23T01:13:03.054Z,78.00
2023-04-23T01:14:02.963Z,79.00
2023-04-23T01:15:02.868Z,80.00
2023-04-23T01:16:03.054Z,80.00
2023-04-23T01:17:03.274Z,80.00
2023-04-23T01:18:03.117Z,80.00
2023-04-23T01:19:03.282Z,80.00
2023-04-23T01:20:03.368Z,79.00
2023-04-23T01:21:03.180Z,79.00
2023-04-23T01:22:02.199Z,80.00
2023-04-23T01:23:02.512Z,80.00
2023-04-23T01:24:01.988Z,81.00
2023-04-23T01:25:02.015Z,82.00
2023-04-23T01:26:02.165Z,80.00
2023-04-23T01:27:02.746Z,80.00
2023-04-23T01:28:03.009Z,79.00
2023-04-23T01:29:02.762Z,79.00
2023-04-23T01:30:02.734Z,81.00
2023-04-23T01:31:02.994Z,82.00
2023-04-23T01:32:03.010Z,82.00
2023-04-23T01:33:02.940Z,82.00
2023-04-23T01:34:02.700Z,82.00
2023-04-23T01:35:03.341Z,83.00
2023-04-23T01:36:02.946Z,83.00
2023-04-23T01:37:02.483Z,83.00
2023-04-23T01:38:02.527Z,83.00
2023-04-23T01:39:02.473Z,83.00
2023-04-23T01:40:02.486Z,83.00
2023-04-23T01:41:02.475Z,82.00
2023-04-23T01:42:03.108Z,82.00
2023-04-23T01:43:02.854Z,82.00
2023-04-23T01:44:02.848Z,82.00
2023-04-23T01:45:02.923Z,82.00
2023-04-23T01:46:02.891Z,82.00
2023-04-23T01:47:03.097Z,83.00
2023-04-23T01:48:02.593Z,83.00
2023-04-23T01:49:02.657Z,83.00
2023-04-23T01:50:02.381Z,83.00
2023-04-23T01:51:02.503Z,83.00
2023-04-23T01:52:03.251Z,83.00
2023-04-23T01:53:03.016Z,84.00
2023-04-23T01:54:03.040Z,84.00
2023-04-23T01:55:03.049Z,83.00
2023-04-23T01:56:03.072Z,84.00
2023-04-23T01:57:02.913Z,84.00
2023-04-23T01:58:02.644Z,85.00
2023-04-23T01:59:02.650Z,85.00
2023-04-23T02:00:02.638Z,85.00
2023-04-23T02:01:02.534Z,85.00
2023-04-23T02:02:02.779Z,85.00
2023-04-23T02:03:02.897Z,85.00
2023-04-23T02:04:03.068Z,85.00
2023-04-23T02:05:03.176Z,84.00
2023-04-23T02:06:03.212Z,84.00
2023-04-23T02:07:03.722Z,84.00
2023-04-23T02:08:03.663Z,84.00
2023-04-23T02:09:03.594Z,84.00
2023-04-23T02:10:03.660Z,84.00
2023-04-23T02:11:03.452Z,84.00
2023-04-23T02:12:03.010Z,83.00
2023-04-23T02:13:02.990Z,83.00
2023-04-23T02:14:02.754Z,83.00
2023-04-23T02:15:02.791Z,82.00
2023-04-23T02:16:02.808Z,82.00
2023-04-23T02:17:03.423Z,82.00
2023-04-23T02:18:03.233Z,83.00
2023-04-23T02:19:03.300Z,83.00
2023-04-23T02:20:03.294Z,83.00
2023-04-23T02:21:03.173Z,82.00
2023-04-23T02:22:03.342Z,82.00
2023-04-23T02:23:03.553Z,81.00
2023-04-23T02:24:03.546Z,81.00
2023-04-23T02:25:03.434Z,80.00
2023-04-23T02:26:03.356Z,80.00
2023-04-23T02:27:03.002Z,80.00
2023-04-23T02:28:02.466Z,79.00
2023-04-23T02:29:02.622Z,79.00
2023-04-23T02:30:02.670Z,79.00
2023-04-23T02:31:02.468Z,80.00
2023-04-23T02:32:03.065Z,81.00
2023-04-23T02:33:02.779Z,81.00
2023-04-23T02:34:02.715Z,81.00
2023-04-23T02:35:02.567Z,81.00
2023-04-23T02:36:03.120Z,81.00
2023-04-23T02:37:03.572Z,80.00
2023-04-23T02:38:03.439Z,81.00
2023-04-23T02:39:03.283Z,81.00
2023-04-23T02:40:03.272Z,81.00
2023-04-23T02:41:02.979Z,82.00
2023-04-23T02:42:03.325Z,82.00
2023-04-23T02:43:03.026Z,83.00
2023-04-23T02:44:03.156Z,83.00
2023-04-23T02:45:03.164Z,83.00
2023-04-23T02:46:03.612Z,82.00
2023-04-23T02:47:04.024Z,82.00
2023-04-23T02:48:03.741Z,83.00
2023-04-23T02:49:03.694Z,81.00
2023-04-23T02:50:03.608Z,81.00
2023-04-23T02:51:03.992Z,80.00
2023-04-23T02:52:02.963Z,80.00
2023-04-23T02:53:03.282Z,82.00
2023-04-23T02:54:02.820Z,81.00
2023-04-23T02:55:03.416Z,80.00
2023-04-23T02:56:03.075Z,80.00
2023-04-23T02:57:03.355Z,80.00
2023-04-23T02:58:03.081Z,80.00
2023-04-23T02:59:03.025Z,80.00
2023-04-23T03:00:03.140Z,79.00
2023-04-23T03:01:03.403Z,79.00
2023-04-23T03:02:03.116Z,80.00
2023-04-23T03:03:03.185Z,81.00
2023-04-23T03:04:02.687Z,80.00
2023-04-23T03:05:02.480Z,80.00
2023-04-23T03:06:03.015Z,79.00
2023-04-23T03:07:02.681Z,78.00
2023-04-23T03:08:03.278Z,78.00
2023-04-23T03:09:03.134Z,79.00
2023-04-23T03:10:03.117Z,79.00
2023-04-23T03:11:03.008Z,80.00
2023-04-23T03:12:02.964Z,80.00
2023-04-23T03:13:03.375Z,81.00
2023-04-23T03:14:03.048Z,80.00
2023-04-23T03:15:02.967Z,80.00
2023-04-23T03:16:02.870Z,80.00
2023-04-23T03:17:02.880Z,81.00
2023-04-23T03:18:02.870Z,82.00
2023-04-23T03:19:03.384Z,82.00
2023-04-23T03:20:03.021Z,82.00
2023-04-23T03:21:03.024Z,83.00
2023-04-23T03:22:02.871Z,83.00
2023-04-23T03:23:03.547Z,83.00
2023-04-23T03:24:03.283Z,83.00
2023-04-23T03:25:03.239Z,83.00
2023-04-23T03:26:03.271Z,83.00
2023-04-23T03:27:02.578Z,83.00
2023-04-23T03:28:02.517Z,84.00
2023-04-23T03:29:02.353Z,85.00
2023-04-23T03:30:02.326Z,84.00
2023-04-23T03:31:02.361Z,84.00
2023-04-23T03:32:02.276Z,84.00
2023-04-23T03:33:02.905Z,84.00
2023-04-23T03:34:02.902Z,84.00
2023-04-23T03:35:02.584Z,83.00
2023-04-23T03:36:02.557Z,83.00
2023-04-23T03:37:02.550Z,84.00
2023-04-23T03:38:03.160Z,83.00
2023-04-23T03:39:02.721Z,83.00
2023-04-23T03:40:02.517Z,83.00
2023-04-23T03:41:03.155Z,83.00
2023-04-23T03:42:03.372Z,83.00
2023-04-23T03:43:03.126Z,83.00
2023-04-23T03:44:03.104Z,81.00
2023-04-23T03:45:02.954Z,82.00
2023-04-23T03:46:03.314Z,83.00
2023-04-23T03:47:02.304Z,83.00
2023-04-23T03:48:02.169Z,83.00
2023-04-23T03:49:02.063Z,83.00
2023-04-23T03:50:02.104Z,84.00
2023-04-23T03:51:02.116Z,84.00
2023-04-23T03:52:02.782Z,83.00
2023-04-23T03:53:02.678Z,82.00
2023-04-23T03:54:03.290Z,82.00
2023-04-23T03:55:02.788Z,83.00
2023-04-23T03:56:02.613Z,84.00
2023-04-23T03:57:02.651Z,85.00
2023-04-23T03:58:02.637Z,86.00
2023-04-23T03:59:02.952Z,86.00
2023-04-23T04:00:02.677Z,85.00
2023-04-23T04:01:02.714Z,84.00
2023-04-23T04:02:02.694Z,84.00
2023-04-23T04:03:03.116Z,85.00
2023-04-23T04:04:03.097Z,85.00
2023-04-23T04:05:03.168Z,85.00
2023-04-23T04:06:02.876Z,85.00
2023-04-23T04:07:02.900Z,86.00
2023-04-23T04:08:03.309Z,86.00
2023-04-23T04:09:03.007Z,86.00
2023-04-23T04:10:02.789Z,86.00
2023-04-23T04:11:03.171Z,86.00
2023-04-23T04:12:03.004Z,87.00
2023-04-23T04:13:03.030Z,87.00
2023-04-23T04:14:03.310Z,87.00
2023-04-23T04:15:03.510Z,87.00
2023-04-23T04:16:03.282Z,87.00
2023-04-23T04:17:03.135Z,87.00
2023-04-23T04:18:03.221Z,87.00
2023-04-23T04:19:03.464Z,87.00
2023-04-23T04:20:03.391Z,87.00
2023-04-23T04:21:03.512Z,87.00
2023-04-23T04:22:03.304Z,87.00
2023-04-23T04:23:03.268Z,87.00
2023-04-23T04:24:03.258Z,87.00
2023-04-23T04:25:03.318Z,87.00
2023-04-23T04:26:03.289Z,87.00
2023-04-23T04:27:03.280Z,88.00
2023-04-23T04:28:03.342Z,88.00
2023-04-23T04:29:03.363Z,89.00
2023-04-23T04:30:03.580Z,88.00
2023-04-23T04:31:03.594Z,88.00
2023-04-23T04:32:02.668Z,87.00
2023-04-23T04:33:02.943Z,87.00
2023-04-23T04:34:02.640Z,87.00
2023-04-23T04:35:02.833Z,87.00
2023-04-23T04:36:02.918Z,87.00
2023-04-23T04:37:02.665Z,87.00
2023-04-23T04:38:02.591Z,87.00
2023-04-23T04:39:02.581Z,87.00
2023-04-23T04:40:02.739Z,88.00
2023-04-23T04:41:02.707Z,88.00
2023-04-23T04:42:02.691Z,88.00
2023-04-23T04:43:02.702Z,87.00
2023-04-23T04:44:02.705Z,87.00
2023-04-23T04:45:02.602Z,86.00
2023-04-23T04:46:03.486Z,87.00
2023-04-23T04:47:03.325Z,86.00
2023-04-23T04:48:03.250Z,86.00
2023-04-23T04:49:03.230Z,86.00
2023-04-23T04:50:03.228Z,86.00
2023-04-23T04:51:03.244Z,86.00
2023-04-23T04:52:03.197Z,87.00
2023-04-23T04:53:02.954Z,87.00
2023-04-23T04:54:02.908Z,87.00
2023-04-23T04:55:03.015Z,87.00
2023-04-23T04:56:03.190Z,87.00
2023-04-23T04:57:03.235Z,87.00
2023-04-23T04:58:03.261Z,87.00
2023-04-23T04:59:03.274Z,87.00
2023-04-23T05:00:02.963Z,87.00
2023-04-23T05:01:03.092Z,88.00
2023-04-23T05:02:03.245Z,88.00
2023-04-23T05:03:03.036Z,87.00
2023-04-23T05:04:03.443Z,87.00
2023-04-23T05:05:03.290Z,87.00
2023-04-23T05:06:03.333Z,87.00
2023-04-23T05:07:02.882Z,87.00
2023-04-23T05:08:02.867Z,88.00
2023-04-23T05:09:02.868Z,88.00
2023-04-23T05:10:02.962Z,88.00
2023-04-23T05:11:02.968Z,88.00
2023-04-23T05:12:02.920Z,88.00
2023-04-23T05:13:03.063Z,88.00
2023-04-23T05:14:02.675Z,88.00
2023-04-23T05:15:02.751Z,89.00
2023-04-23T05:16:02.977Z,89.00
2023-04-23T05:17:02.871Z,89.00
2023-04-23T05:18:02.937Z,88.00
2023-04-23T05:19:02.649Z,88.00
2023-04-23T05:20:02.994Z,88.00
2023-04-23T05:21:03.114Z,89.00
2023-04-23T05:22:02.719Z,89.00
2023-04-23T05:23:02.640Z,89.00
2023-04-23T05:24:02.756Z,89.00
2023-04-23T05:25:02.730Z,90.00
2023-04-23T05:26:02.917Z,90.00
2023-04-23T05:27:02.745Z,91.00
2023-04-23T05:28:02.549Z,91.00
2023-04-23T05:29:02.564Z,91.00
2023-04-23T05:30:02.674Z,91.00
2023-04-23T05:31:02.726Z,92.00
2023-04-23T05:32:03.380Z,92.00
2023-04-23T05:33:03.168Z,92.00
2023-04-23T05:34:03.200Z,92.00
2023-04-23T05:35:03.275Z,93.00
2023-04-23T05:36:03.424Z,93.00
2023-04-23T05:37:02.871Z,94.00
2023-04-23T05:38:02.784Z,94.00
2023-04-23T05:39:02.828Z,94.00
2023-04-23T05:40:02.939Z,94.00
2023-04-23T05:41:02.801Z,93.00
2023-04-23T05:42:02.753Z,93.00
2023-04-23T05:43:02.668Z,93.00
2023-04-23T05:44:03.005Z,93.00
2023-04-23T05:45:03.153Z,92.00
2023-04-23T05:46:03.024Z,92.00
2023-04-23T05:47:03.719Z,92.00
2023-04-23T05:48:03.790Z,92.00
2023-04-23T05:49:03.803Z,91.00
2023-04-23T05:50:03.232Z,91.00
2023-04-23T05:51:03.129Z,91.00
2023-04-23T05:52:02.513Z,90.00
2023-04-23T05:53:02.493Z,90.00
2023-04-23T05:54:02.628Z,89.00
2023-04-23T05:55:02.665Z,89.00
2023-04-23T05:56:02.686Z,90.00
2023-04-23T05:57:03.391Z,90.00
2023-04-23T05:58:03.343Z,90.00
2023-04-23T05:59:03.033Z,90.00
2023-04-23T06:00:03.126Z,90.00
2023-04-23T06:01:03.312Z,90.00
2023-04-23T06:02:02.947Z,89.00
2023-04-23T06:03:02.903Z,90.00
2023-04-23T06:04:03.082Z,89.00
2023-04-23T06:05:02.947Z,88.00
2023-04-23T06:06:02.942Z,88.00
2023-04-23T06:07:01.996Z,88.00
2023-04-23T06:08:02.326Z,88.00
2023-04-23T06:09:02.411Z,88.00
2023-04-23T06:10:02.081Z,89.00
2023-04-23T06:11:02.148Z,89.00
2023-04-23T06:12:02.884Z,89.00
2023-04-23T06:13:02.621Z,89.00
2023-04-23T06:14:02.672Z,88.00
2023-04-23T06:15:02.834Z,88.00
2023-04-23T06:16:02.721Z,88.00
2023-04-23T06:17:02.422Z,87.00
2023-04-23T06:18:02.843Z,87.00
2023-04-23T06:19:02.611Z,87.00
2023-04-23T06:20:02.563Z,86.00
2023-04-23T06:21:02.593Z,87.00
2023-04-23T06:22:03.300Z,85.00
2023-04-23T06:23:03.030Z,85.00
2023-04-23T06:24:03.211Z,85.00
2023-04-23T06:25:02.676Z,85.00
2023-04-23T06:26:02.861Z,85.00
2023-04-23T06:27:02.009Z,84.00
2023-04-23T06:28:01.954Z,83.00
2023-04-23T06:29:02.515Z,83.00
2023-04-23T06:30:02.466Z,82.00
2023-04-23T06:31:02.601Z,81.00
2023-04-23T06:32:02.686Z,81.00
2023-04-23T06:33:02.425Z,81.00
2023-04-23T06:34:02.529Z,80.00
2023-04-23T06:35:02.709Z,80.00
2023-04-23T06:36:02.396Z,79.00
2023-04-23T06:37:02.972Z,80.00
2023-04-23T06:38:02.803Z,79.00
2023-04-23T06:39:02.371Z,79.00
2023-04-23T06:40:02.427Z,79.00
2023-04-23T06:41:02.452Z,79.00
2023-04-23T06:42:02.417Z,79.00
2023-04-23T06:43:02.492Z,79.00
2023-04-23T06:44:03.063Z,79.00
2023-04-23T06:45:04.248Z,78.00
2023-04-23T06:46:02.568Z,78.00
2023-04-23T06:47:02.083Z,78.00
2023-04-23T06:48:02.172Z,78.00
2023-04-23T06:49:02.423Z,79.00
2023-04-23T06:50:02.437Z,79.00
2023-04-23T06:51:02.601Z,79.00
2023-04-23T06:52:02.417Z,78.00
2023-04-23T06:53:02.997Z,78.00
2023-04-23T06:54:02.598Z,78.00
2023-04-23T06:55:02.774Z,78.00
2023-04-23T06:56:02.681Z,78.00
2023-04-23T06:57:02.548Z,78.00
2023-04-23T06:58:03.105Z,78.00
2023-04-23T06:59:02.970Z,78.00
2023-04-23T07:00:02.898Z,79.00
2023-04-23T07:01:02.957Z,78.00
2023-04-23T07:02:02.347Z,78.00
2023-04-23T07:03:02.684Z,79.00
2023-04-23T07:04:02.554Z,78.00
2023-04-23T07:05:02.583Z,78.00
2023-04-23T07:06:02.660Z,78.00
2023-04-23T07:07:02.778Z,78.00
2023-04-23T07:08:02.769Z,78.00
2023-04-23T07:09:02.914Z,78.00
2023-04-23T07:10:03.107Z,78.00
2023-04-23T07:11:02.793Z,78.00
2023-04-23T07:12:02.925Z,78.00
2023-04-23T07:13:02.876Z,78.00
2023-04-23T07:14:02.956Z,78.00
2023-04-23T07:15:03.237Z,78.00
2023-04-23T07:16:03.010Z,78.00
2023-04-23T07:17:02.706Z,78.00
2023-04-23T07:18:02.506Z,78.00
2023-04-23T07:19:02.502Z,78.00
2023-04-23T07:20:02.549Z,78.00
2023-04-23T07:21:02.490Z,77.00
2023-04-23T07:22:02.422Z,77.00
2023-04-23T07:23:02.418Z,77.00
2023-04-23T07:24:02.486Z,77.00
2023-04-23T07:25:02.516Z,77.00
2023-04-23T07:26:02.372Z,77.00
2023-04-23T07:27:02.030Z,77.00
2023-04-23T07:28:01.976Z,77.00
2023-04-23T07:29:01.885Z,77.00
2023-04-23T07:30:02.487Z,76.00
2023-04-23T07:31:01.930Z,76.00
2023-04-23T07:32:02.630Z,75.00
2023-04-23T07:33:02.434Z,75.00
2023-04-23T07:34:02.810Z,75.00
2023-04-23T07:35:02.897Z,75.00
2023-04-23T07:36:02.957Z,75.00
2023-04-23T07:37:02.643Z,76.00
2023-04-23T07:38:02.641Z,76.00
2023-04-23T07:39:02.609Z,76.00
2023-04-23T07:40:02.529Z,75.00
2023-04-23T07:41:03.078Z,75.00
2023-04-23T07:42:02.907Z,75.00
2023-04-23T07:43:03.216Z,74.00
2023-04-23T07:44:03.177Z,74.00
2023-04-23T07:45:02.834Z,73.00
2023-04-23T07:46:02.746Z,72.00
2023-04-23T07:47:02.605Z,73.00
2023-04-23T07:48:02.506Z,73.00
2023-04-23T07:49:02.536Z,72.00
2023-04-23T07:50:02.499Z,71.00
2023-04-23T07:51:02.814Z,72.00
2023-04-23T07:52:03.002Z,71.00
2023-04-23T07:53:02.842Z,72.00
2023-04-23T07:54:02.836Z,71.00
2023-04-23T07:55:03.244Z,72.00
2023-04-23T07:56:03.127Z,71.00
2023-04-23T07:57:02.391Z,72.00
2023-04-23T07:58:02.114Z,71.00
2023-04-23T07:59:01.924Z,70.00
2023-04-23T08:00:02.366Z,70.00
2023-04-23T08:01:02.365Z,71.00
2023-04-23T08:02:02.879Z,71.00
2023-04-23T08:03:03.232Z,70.00
2023-04-23T08:04:03.583Z,70.00
2023-04-23T08:05:03.130Z,69.00
2023-04-23T08:06:03.231Z,69.00
2023-04-23T08:07:03.355Z,69.00
2023-04-23T08:08:03.296Z,68.00
2023-04-23T08:09:03.405Z,70.00
2023-04-23T08:10:03.292Z,69.00
2023-04-23T08:11:03.227Z,69.00
2023-04-23T08:12:02.959Z,70.00
2023-04-23T08:13:02.702Z,70.00
2023-04-23T08:14:02.868Z,68.00
2023-04-23T08:15:02.863Z,69.00
2023-04-23T08:16:02.966Z,68.00
2023-04-23T08:17:02.619Z,68.00
2023-04-23T08:18:02.679Z,67.00
2023-04-23T08:19:06.013Z,68.00
2023-04-23T08:20:02.382Z,67.00
2023-04-23T08:21:02.575Z,66.00
2023-04-23T08:22:03.108Z,66.00
2023-04-23T08:23:02.758Z,67.00
2023-04-23T08:24:02.864Z,66.00
2023-04-23T08:25:03.113Z,67.00
2023-04-23T08:26:03.128Z,66.00
2023-04-23T08:27:03.162Z,65.00
2023-04-23T08:28:03.217Z,66.00
2023-04-23T08:29:03.202Z,65.00
2023-04-23T08:30:03.097Z,65.00
2023-04-23T08:31:12.005Z,65.00
2023-04-23T08:32:03.799Z,65.00
2023-04-23T08:33:03.598Z,65.00
2023-04-23T08:34:03.625Z,64.00
2023-04-23T08:35:03.712Z,65.00
2023-04-23T08:36:03.298Z,64.00
2023-04-23T08:37:02.648Z,65.00
2023-04-23T08:38:02.719Z,65.00
2023-04-23T08:39:02.712Z,64.00
2023-04-23T08:40:02.362Z,65.00
2023-04-23T08:41:02.363Z,63.00
2023-04-23T08:42:03.478Z,63.00
2023-04-23T08:43:02.918Z,62.00
2023-04-23T08:44:03.255Z,61.00
2023-04-23T08:45:03.237Z,63.00
2023-04-23T08:46:03.185Z,62.00
2023-04-23T08:47:02.990Z,62.00
2023-04-23T08:48:02.843Z,63.00
2023-04-23T08:49:02.815Z,62.00
2023-04-23T08:50:03.040Z,62.00
2023-04-23T08:51:02.805Z,62.00
2023-04-23T08:52:03.566Z,63.00
2023-04-23T08:53:03.247Z,62.00
2023-04-23T08:54:03.406Z,62.00
2023-04-23T08:55:03.475Z,63.00
2023-04-23T08:56:03.535Z,62.00
2023-04-23T08:57:02.496Z,62.00
2023-04-23T08:58:02.721Z,62.00
2023-04-23T08:59:02.696Z,61.00
2023-04-23T09:00:02.961Z,61.00
2023-04-23T09:01:02.652Z,62.00
2023-04-23T09:02:02.922Z,63.00
2023-04-23T09:03:02.814Z,62.00
2023-04-23T09:04:02.875Z,61.00
2023-04-23T09:05:02.817Z,61.00
2023-04-23T09:06:02.651Z,61.00
2023-04-23T09:07:02.407Z,61.00
2023-04-23T09:08:02.426Z,61.00
2023-04-23T09:09:01.831Z,61.00
2023-04-23T09:10:02.339Z,59.00
2023-04-23T09:11:02.351Z,61.00
2023-04-23T09:12:03.110Z,61.00
2023-04-23T09:13:02.747Z,62.00
2023-04-23T09:14:02.995Z,61.00
2023-04-23T09:15:02.506Z,60.00
2023-04-23T09:16:03.000Z,58.00
2023-04-23T09:17:02.777Z,59.00
2023-04-23T09:18:02.178Z,58.00
2023-04-23T09:19:02.119Z,58.00
2023-04-23T09:20:02.482Z,57.00
2023-04-23T09:21:02.306Z,59.00
2023-04-23T09:22:03.014Z,57.00
2023-04-23T09:23:03.029Z,59.00
2023-04-23T09:24:02.811Z,58.00
2023-04-23T09:25:02.839Z,59.00
2023-04-23T09:26:02.506Z,59.00
2023-04-23T09:27:03.244Z,59.00
2023-04-23T09:28:03.010Z,57.00
2023-04-23T09:29:02.985Z,56.00
2023-04-23T09:30:02.978Z,57.00
2023-04-23T09:31:02.886Z,58.00
2023-04-23T09:32:01.906Z,58.00
2023-04-23T09:33:01.991Z,57.00
2023-04-23T09:34:02.235Z,56.00
2023-04-23T09:35:02.508Z,55.00
2023-04-23T09:36:02.375Z,55.00
2023-04-23T09:37:02.076Z,54.00
2023-04-23T09:38:02.645Z,55.00
2023-04-23T09:39:02.295Z,55.00
2023-04-23T09:40:02.409Z,55.00
2023-04-23T09:41:02.481Z,55.00
2023-04-23T09:42:02.496Z,55.00
2023-04-23T09:43:02.886Z,56.00
2023-04-23T09:44:02.705Z,56.00
2023-04-23T09:45:02.908Z,55.00
2023-04-23T09:46:02.927Z,55.00
2023-04-23T09:47:02.046Z,55.00
2023-04-23T09:48:02.490Z,55.00
2023-04-23T09:49:02.378Z,56.00
2023-04-23T09:50:02.424Z,56.00
2023-04-23T09:51:02.370Z,56.00
2023-04-23T09:52:02.693Z,56.00
2023-04-23T09:53:02.609Z,56.00
2023-04-23T09:54:03.022Z,54.00
2023-04-23T09:55:03.008Z,52.00
2023-04-23T09:56:03.072Z,53.00
2023-04-23T09:57:02.263Z,54.00
2023-04-23T09:58:02.294Z,54.00
2023-04-23T09:59:02.586Z,51.00
2023-04-23T10:00:13.561Z,50.00
2023-04-23T10:01:02.599Z,51.00
2023-04-23T10:02:03.861Z,50.00
2023-04-23T10:03:03.687Z,50.00
2023-04-23T10:04:03.576Z,51.00
2023-04-23T10:05:21.156Z,51.00
2023-04-23T10:06:04.078Z,51.00
2023-04-23T10:08:03.650Z,48.00
2023-04-23T10:09:03.422Z,49.00
2023-04-23T10:10:03.051Z,48.00
2023-04-23T10:11:17.775Z,48.00
2023-04-23T10:12:03.498Z,48.00
2023-04-23T10:13:03.545Z,47.00
2023-04-23T10:14:03.582Z,49.00
2023-04-23T10:15:03.564Z,48.00
2023-04-23T10:16:17.966Z,49.00
2023-04-23T10:17:02.913Z,50.00
2023-04-23T10:18:03.025Z,50.00
2023-04-23T10:19:02.857Z,53.00
2023-04-23T10:20:03.032Z,53.00
2023-04-23T10:21:03.064Z,50.00
2023-04-23T10:23:03.266Z,48.00
2023-04-23T10:24:03.178Z,46.00
2023-04-23T10:25:03.238Z,48.00
2023-04-23T10:26:03.340Z,47.00
2023-04-23T10:27:03.373Z,46.00
2023-04-23T10:28:03.324Z,46.00
2023-04-23T10:29:03.329Z,46.00
2023-04-23T10:30:05.441Z,48.00
2023-04-23T10:31:03.734Z,49.00
2023-04-23T10:32:03.019Z,50.00
2023-04-23T10:33:03.144Z,51.00
2023-04-23T10:34:03.233Z,52.00
2023-04-23T10:35:03.348Z,52.00
2023-04-23T10:36:02.929Z,53.00
2023-04-23T10:37:03.643Z,53.00
2023-04-23T10:38:03.729Z,52.00
2023-04-23T10:39:03.631Z,52.00
2023-04-23T10:40:03.691Z,53.00
2023-04-23T10:41:03.898Z,50.00
2023-04-23T10:42:03.015Z,51.00
2023-04-23T10:43:02.903Z,51.00
2023-04-23T10:44:03.243Z,50.00
2023-04-23T10:45:10.140Z,51.00
2023-04-23T10:46:02.887Z,51.00
2023-04-23T10:47:03.542Z,50.00
2023-04-23T10:48:03.687Z,51.00
2023-04-23T10:49:03.471Z,51.00
2023-04-23T10:50:03.929Z,49.00
2023-04-23T10:51:24.989Z,48.00
2023-04-23T10:52:17.691Z,49.00
2023-04-23T10:53:04.089Z,48.00
2023-04-23T10:54:04.051Z,49.00
2023-04-23T10:55:04.031Z,49.00
2023-04-23T10:56:03.521Z,49.00
2023-04-23T10:57:03.052Z,50.00
2023-04-23T10:58:03.443Z,50.00
2023-04-23T10:59:02.802Z,49.00
2023-04-23T11:00:03.037Z,49.00
2023-04-23T11:01:02.609Z,49.00
2023-04-23T11:02:03.091Z,50.00
2023-04-23T11:03:03.040Z,51.00
2023-04-23T11:04:02.894Z,49.00
2023-04-23T11:05:03.446Z,50.00
2023-04-23T11:06:03.086Z,51.00
2023-04-23T11:07:02.680Z,50.00
2023-04-23T11:08:11.049Z,49.00
2023-04-23T11:09:02.714Z,49.00
2023-04-23T11:10:02.705Z,51.00
2023-04-23T11:11:02.412Z,49.00
2023-04-23T11:12:03.176Z,50.00
2023-04-23T11:13:03.188Z,49.00
2023-04-23T11:14:03.431Z,49.00
2023-04-23T11:15:03.160Z,50.00
2023-04-23T11:16:03.111Z,49.00
2023-04-23T11:17:02.701Z,50.00
2023-04-23T11:18:02.805Z,50.00
2023-04-23T11:19:02.858Z,50.00
2023-04-23T11:20:02.546Z,50.00
2023-04-23T11:21:02.636Z,51.00
2023-04-23T11:22:02.602Z,51.00
2023-04-23T11:23:02.009Z,50.00
2023-04-23T11:24:02.277Z,50.00
2023-04-23T11:25:02.514Z,49.00
2023-04-23T11:26:01.928Z,49.00
2023-04-23T11:27:02.813Z,49.00
2023-04-23T11:28:02.565Z,50.00
2023-04-23T11:29:02.403Z,49.00
2023-04-23T11:30:02.605Z,49.00
2023-04-23T11:31:02.680Z,49.00
2023-04-23T11:32:04.146Z,49.00
2023-04-23T11:33:03.341Z,49.00
2023-04-23T11:34:02.731Z,48.00
2023-04-23T11:35:02.858Z,49.00
2023-04-23T11:36:03.298Z,49.00
2023-04-23T11:37:02.824Z,48.00
2023-04-23T11:38:02.808Z,46.00
2023-04-23T11:39:02.871Z,46.00
2023-04-23T11:40:02.815Z,45.00
2023-04-23T11:41:02.249Z,45.00
2023-04-23T11:42:03.037Z,44.00
2023-04-23T11:43:02.692Z,45.00
2023-04-23T11:44:02.776Z,44.00
2023-04-23T11:45:03.076Z,44.00
2023-04-23T11:46:02.934Z,43.00
2023-04-23T11:47:02.670Z,45.00
2023-04-23T11:48:02.631Z,44.00
2023-04-23T11:49:02.109Z,45.00
2023-04-23T11:50:02.172Z,46.00
2023-04-23T11:51:02.302Z,43.00
2023-04-23T11:52:02.888Z,44.00
2023-04-23T11:53:02.331Z,44.00
2023-04-23T11:54:02.441Z,45.00
2023-04-23T11:55:02.739Z,44.00
2023-04-23T11:56:02.381Z,44.00
2023-04-23T11:57:03.205Z,44.00
2023-04-23T11:58:03.050Z,44.00
2023-04-23T11:59:02.905Z,43.00
2023-04-23T12:00:03.030Z,43.00
2023-04-23T12:01:03.015Z,43.00
2023-04-23T12:02:02.170Z,43.00
2023-04-23T12:03:02.681Z,43.00
2023-04-23T12:04:02.772Z,43.00
2023-04-23T12:05:02.558Z,43.00
2023-04-23T12:06:02.634Z,43.00
2023-04-23T12:07:05.867Z,44.00
2023-04-23T12:08:02.889Z,42.00
2023-04-23T12:09:02.517Z,43.00
2023-04-23T12:10:02.607Z,42.00
2023-04-23T12:11:02.596Z,43.00
2023-04-23T12:12:02.609Z,44.00
2023-04-23T12:13:02.920Z,44.00
2023-04-23T12:14:02.994Z,41.00
2023-04-23T12:15:02.956Z,42.00
2023-04-23T12:16:03.084Z,40.00
2023-04-23T12:17:02.983Z,41.00
2023-04-23T12:18:02.470Z,41.00
2023-04-23T12:19:02.428Z,42.00
2023-04-23T12:20:02.632Z,42.00
2023-04-23T12:21:02.210Z,43.00
2023-04-23T12:22:02.041Z,43.00
2023-04-23T12:23:02.484Z,43.00
2023-04-23T12:24:02.326Z,43.00
2023-04-23T12:25:02.594Z,42.00
2023-04-23T12:26:02.379Z,42.00
2023-04-23T12:27:02.497Z,40.00
2023-04-23T12:28:03.095Z,40.00
2023-04-23T12:29:03.206Z,42.00
2023-04-23T12:30:05.709Z,41.00
2023-04-23T12:31:03.004Z,40.00
2023-04-23T12:32:03.239Z,40.00
2023-04-23T12:33:03.018Z,40.00
2023-04-23T12:34:03.066Z,41.00
2023-04-23T12:35:02.736Z,40.00
2023-04-23T12:36:02.803Z,40.00
2023-04-23T12:37:02.901Z,40.00
2023-04-23T12:38:02.978Z,40.00
2023-04-23T12:39:03.101Z,40.00
2023-04-23T12:40:03.248Z,41.00
2023-04-23T12:41:03.072Z,40.00
2023-04-23T12:42:03.214Z,41.00
2023-04-23T12:43:02.693Z,40.00
2023-04-23T12:44:03.347Z,40.00
2023-04-23T12:45:02.792Z,40.00
2023-04-23T12:46:02.960Z,40.00
2023-04-23T12:47:02.740Z,41.00
2023-04-23T12:48:02.580Z,40.00
2023-04-23T12:49:02.566Z,39.00
2023-04-23T12:50:02.728Z,38.00
2023-04-23T12:51:02.384Z,39.00
2023-04-23T12:52:02.592Z,39.00
2023-04-23T12:53:02.577Z,40.00
2023-04-23T12:54:02.749Z,40.00